sensor_id;sensor_type;location;lat;lon;timestamp;temperature;humidity
43991;DHT22;29654;50.784;20.604;2023-07-20T00:01:56;24.30;43.40
43991;DHT22;29654;50.784;20.604;2023-07-20T00:07:04;24.20;43.10
43991;DHT22;29654;50.784;20.604;2023-07-20T00:12:11;24.10;44.00
43991;DHT22;29654;50.784;20.604;2023-07-20T00:17:14;24.00;43.70
43991;DHT22;29654;50.784;20.604;2023-07-20T00:22:16;23.90;43.70
43991;DHT22;29654;50.784;20.604;2023-07-20T00:27:21;23.80;43.80
43991;DHT22;29654;50.784;20.604;2023-07-20T00:32:23;23.80;44.10
43991;DHT22;29654;50.784;20.604;2023-07-20T00:37:26;23.70;44.60
43991;DHT22;29654;50.784;20.604;2023-07-20T00:42:31;23.60;44.10
43991;DHT22;29654;50.784;20.604;2023-07-20T00:47:34;23.50;44.30
43991;DHT22;29654;50.784;20.604;2023-07-20T00:52:37;23.40;44.30
43991;DHT22;29654;50.784;20.604;2023-07-20T00:57:42;23.40;44.70
43991;DHT22;29654;50.784;20.604;2023-07-20T01:02:48;23.30;44.80
43991;DHT22;29654;50.784;20.604;2023-07-20T01:07:55;23.20;44.80
43991;DHT22;29654;50.784;20.604;2023-07-20T01:13:06;23.20;45.40
43991;DHT22;29654;50.784;20.604;2023-07-20T01:18:09;23.20;45.60
43991;DHT22;29654;50.784;20.604;2023-07-20T01:23:32;23.00;45.10
43991;DHT22;29654;50.784;20.604;2023-07-20T01:29:06;23.00;46.50
43991;DHT22;29654;50.784;20.604;2023-07-20T01:34:22;23.00;46.60
43991;DHT22;29654;50.784;20.604;2023-07-20T01:39:26;23.00;46.10
43991;DHT22;29654;50.784;20.604;2023-07-20T01:44:29;23.00;45.90
43991;DHT22;29654;50.784;20.604;2023-07-20T01:49:34;23.00;45.90
43991;DHT22;29654;50.784;20.604;2023-07-20T01:54:36;23.00;46.30
43991;DHT22;29654;50.784;20.604;2023-07-20T01:59:39;23.00;46.30
43991;DHT22;29654;50.784;20.604;2023-07-20T02:04:43;23.10;46.50
43991;DHT22;29654;50.784;20.604;2023-07-20T02:09:49;23.20;46.80
43991;DHT22;29654;50.784;20.604;2023-07-20T02:14:52;23.20;47.10
43991;DHT22;29654;50.784;20.604;2023-07-20T02:19:56;23.30;46.70
43991;DHT22;29654;50.784;20.604;2023-07-20T02:24:59;23.30;46.90
43991;DHT22;29654;50.784;20.604;2023-07-20T02:30:03;23.30;46.60
43991;DHT22;29654;50.784;20.604;2023-07-20T02:35:08;23.40;46.60
43991;DHT22;29654;50.784;20.604;2023-07-20T02:40:11;23.50;46.70
43991;DHT22;29654;50.784;20.604;2023-07-20T02:45:13;23.50;46.50
43991;DHT22;29654;50.784;20.604;2023-07-20T02:50:17;23.60;46.50
43991;DHT22;29654;50.784;20.604;2023-07-20T02:55:20;23.70;46.60
43991;DHT22;29654;50.784;20.604;2023-07-20T03:00:23;23.70;46.40
43991;DHT22;29654;50.784;20.604;2023-07-20T03:05:27;23.80;46.60
43991;DHT22;29654;50.784;20.604;2023-07-20T03:10:30;23.80;46.80
43991;DHT22;29654;50.784;20.604;2023-07-20T03:15:33;23.80;46.80
43991;DHT22;29654;50.784;20.604;2023-07-20T03:20:38;23.80;46.80
43991;DHT22;29654;50.784;20.604;2023-07-20T03:25:41;23.70;46.70
43991;DHT22;29654;50.784;20.604;2023-07-20T03:30:43;23.70;46.70
43991;DHT22;29654;50.784;20.604;2023-07-20T03:35:47;23.70;46.80
43991;DHT22;29654;50.784;20.604;2023-07-20T03:40:50;23.50;46.80
43991;DHT22;29654;50.784;20.604;2023-07-20T03:45:53;23.50;46.60
43991;DHT22;29654;50.784;20.604;2023-07-20T03:50:58;23.40;46.60
43991;DHT22;29654;50.784;20.604;2023-07-20T03:56:02;23.30;46.80
43991;DHT22;29654;50.784;20.604;2023-07-20T04:01:05;23.30;47.10
43991;DHT22;29654;50.784;20.604;2023-07-20T04:06:09;23.20;47.00
43991;DHT22;29654;50.784;20.604;2023-07-20T04:11:11;23.20;47.90
43991;DHT22;29654;50.784;20.604;2023-07-20T04:16:14;23.20;47.00
43991;DHT22;29654;50.784;20.604;2023-07-20T04:21:18;23.10;47.20
43991;DHT22;29654;50.784;20.604;2023-07-20T04:26:21;23.00;47.70
43991;DHT22;29654;50.784;20.604;2023-07-20T04:31:24;22.90;47.80
43991;DHT22;29654;50.784;20.604;2023-07-20T04:36:28;22.90;47.80
43991;DHT22;29654;50.784;20.604;2023-07-20T04:41:31;22.80;48.00
43991;DHT22;29654;50.784;20.604;2023-07-20T04:46:34;22.80;47.90
43991;DHT22;29654;50.784;20.604;2023-07-20T04:51:40;22.70;48.10
43991;DHT22;29654;50.784;20.604;2023-07-20T04:56:42;22.70;48.40
43991;DHT22;29654;50.784;20.604;2023-07-20T05:01:47;22.70;48.10
43991;DHT22;29654;50.784;20.604;2023-07-20T05:06:52;22.60;48.30
43991;DHT22;29654;50.784;20.604;2023-07-20T05:11:55;22.60;48.60
43991;DHT22;29654;50.784;20.604;2023-07-20T05:16:57;22.60;48.60
43991;DHT22;29654;50.784;20.604;2023-07-20T05:22:01;22.60;48.70
43991;DHT22;29654;50.784;20.604;2023-07-20T05:27:05;22.50;49.20
43991;DHT22;29654;50.784;20.604;2023-07-20T05:32:08;22.60;49.10
43991;DHT22;29654;50.784;20.604;2023-07-20T05:37:13;22.50;49.00
43991;DHT22;29654;50.784;20.604;2023-07-20T05:42:15;22.50;49.30
43991;DHT22;29654;50.784;20.604;2023-07-20T05:47:18;22.40;49.20
43991;DHT22;29654;50.784;20.604;2023-07-20T05:52:22;22.40;49.40
43991;DHT22;29654;50.784;20.604;2023-07-20T05:57:26;22.40;49.70
43991;DHT22;29654;50.784;20.604;2023-07-20T06:02:28;22.40;49.90
43991;DHT22;29654;50.784;20.604;2023-07-20T06:07:32;22.50;50.00
43991;DHT22;29654;50.784;20.604;2023-07-20T06:12:35;22.70;50.20
43991;DHT22;29654;50.784;20.604;2023-07-20T06:17:37;22.90;50.20
43991;DHT22;29654;50.784;20.604;2023-07-20T06:22:41;23.10;50.90
43991;DHT22;29654;50.784;20.604;2023-07-20T06:27:45;23.40;50.20
43991;DHT22;29654;50.784;20.604;2023-07-20T06:32:48;23.70;50.20
43991;DHT22;29654;50.784;20.604;2023-07-20T06:37:52;24.00;49.80
43991;DHT22;29654;50.784;20.604;2023-07-20T06:42:55;24.20;49.50
43991;DHT22;29654;50.784;20.604;2023-07-20T06:47:59;24.50;49.10
43991;DHT22;29654;50.784;20.604;2023-07-20T06:53:05;24.70;48.90
43991;DHT22;29654;50.784;20.604;2023-07-20T06:58:09;24.80;48.60
43991;DHT22;29654;50.784;20.604;2023-07-20T07:03:12;24.80;48.40
43991;DHT22;29654;50.784;20.604;2023-07-20T07:08:18;25.10;48.50
43991;DHT22;29654;50.784;20.604;2023-07-20T07:13:21;25.20;48.50
43991;DHT22;29654;50.784;20.604;2023-07-20T07:18:24;25.40;48.30
43991;DHT22;29654;50.784;20.604;2023-07-20T07:23:28;25.60;48.00
43991;DHT22;29654;50.784;20.604;2023-07-20T07:28:31;25.90;48.40
43991;DHT22;29654;50.784;20.604;2023-07-20T07:33:34;26.10;47.40
43991;DHT22;29654;50.784;20.604;2023-07-20T07:38:38;26.20;47.20
43991;DHT22;29654;50.784;20.604;2023-07-20T07:43:40;26.40;47.30
43991;DHT22;29654;50.784;20.604;2023-07-20T07:48:43;26.60;47.20
43991;DHT22;29654;50.784;20.604;2023-07-20T07:53:47;26.70;46.60
43991;DHT22;29654;50.784;20.604;2023-07-20T07:58:51;26.80;46.60
43991;DHT22;29654;50.784;20.604;2023-07-20T08:03:53;27.00;46.40
43991;DHT22;29654;50.784;20.604;2023-07-20T08:08:58;27.20;46.40
43991;DHT22;29654;50.784;20.604;2023-07-20T08:14:00;27.30;46.10
43991;DHT22;29654;50.784;20.604;2023-07-20T08:19:03;27.50;45.70
43991;DHT22;29654;50.784;20.604;2023-07-20T08:24:07;27.60;45.60
43991;DHT22;29654;50.784;20.604;2023-07-20T08:29:10;27.80;45.10
43991;DHT22;29654;50.784;20.604;2023-07-20T08:34:12;27.90;45.00
43991;DHT22;29654;50.784;20.604;2023-07-20T08:39:16;28.00;45.00
43991;DHT22;29654;50.784;20.604;2023-07-20T08:44:19;28.20;44.20
43991;DHT22;29654;50.784;20.604;2023-07-20T08:49:23;28.40;44.10
43991;DHT22;29654;50.784;20.604;2023-07-20T08:54:30;28.60;43.90
43991;DHT22;29654;50.784;20.604;2023-07-20T08:59:36;28.70;43.50
43991;DHT22;29654;50.784;20.604;2023-07-20T09:04:40;28.90;43.40
43991;DHT22;29654;50.784;20.604;2023-07-20T09:09:45;29.00;43.20
43991;DHT22;29654;50.784;20.604;2023-07-20T09:14:47;29.10;43.00
43991;DHT22;29654;50.784;20.604;2023-07-20T09:19:50;29.30;42.80
43991;DHT22;29654;50.784;20.604;2023-07-20T09:24:54;29.40;42.40
43991;DHT22;29654;50.784;20.604;2023-07-20T09:29:57;29.50;42.50
43991;DHT22;29654;50.784;20.604;2023-07-20T09:34:59;29.60;42.20
43991;DHT22;29654;50.784;20.604;2023-07-20T09:40:07;29.70;42.10
43991;DHT22;29654;50.784;20.604;2023-07-20T09:45:10;29.70;42.90
43991;DHT22;29654;50.784;20.604;2023-07-20T09:50:13;29.70;42.80
43991;DHT22;29654;50.784;20.604;2023-07-20T09:55:17;29.50;42.50
43991;DHT22;29654;50.784;20.604;2023-07-20T10:00:22;29.20;42.50
43991;DHT22;29654;50.784;20.604;2023-07-20T10:05:28;28.90;43.80
43991;DHT22;29654;50.784;20.604;2023-07-20T10:10:40;28.70;45.00
43991;DHT22;29654;50.784;20.604;2023-07-20T10:15:47;28.70;44.50
43991;DHT22;29654;50.784;20.604;2023-07-20T10:20:54;28.70;45.30
43991;DHT22;29654;50.784;20.604;2023-07-20T10:26:01;28.80;44.80
43991;DHT22;29654;50.784;20.604;2023-07-20T10:31:04;28.80;44.50
43991;DHT22;29654;50.784;20.604;2023-07-20T10:36:09;28.90;44.30
43991;DHT22;29654;50.784;20.604;2023-07-20T10:41:18;28.90;44.30
43991;DHT22;29654;50.784;20.604;2023-07-20T10:46:41;28.90;44.40
43991;DHT22;29654;50.784;20.604;2023-07-20T10:51:48;28.90;44.30
43991;DHT22;29654;50.784;20.604;2023-07-20T10:56:54;29.00;44.20
43991;DHT22;29654;50.784;20.604;2023-07-20T11:01:58;29.00;44.20
43991;DHT22;29654;50.784;20.604;2023-07-20T11:07:02;29.10;44.30
43991;DHT22;29654;50.784;20.604;2023-07-20T11:12:11;29.20;44.30
43991;DHT22;29654;50.784;20.604;2023-07-20T11:17:15;29.40;44.30
43991;DHT22;29654;50.784;20.604;2023-07-20T11:22:23;29.40;43.90
43991;DHT22;29654;50.784;20.604;2023-07-20T11:27:27;29.40;43.10
43991;DHT22;29654;50.784;20.604;2023-07-20T11:32:30;29.50;43.10
43991;DHT22;29654;50.784;20.604;2023-07-20T11:37:33;29.50;42.70
43991;DHT22;29654;50.784;20.604;2023-07-20T11:42:37;29.50;42.50
43991;DHT22;29654;50.784;20.604;2023-07-20T11:47:41;29.50;42.10
43991;DHT22;29654;50.784;20.604;2023-07-20T11:52:45;29.40;41.90
43991;DHT22;29654;50.784;20.604;2023-07-20T11:58:03;29.40;41.90
43991;DHT22;29654;50.784;20.604;2023-07-20T12:03:06;29.30;41.60
43991;DHT22;29654;50.784;20.604;2023-07-20T12:08:10;29.10;41.90
43991;DHT22;29654;50.784;20.604;2023-07-20T12:13:15;29.10;41.40
43991;DHT22;29654;50.784;20.604;2023-07-20T12:18:18;28.90;40.90
43991;DHT22;29654;50.784;20.604;2023-07-20T12:23:20;28.80;40.50
43991;DHT22;29654;50.784;20.604;2023-07-20T12:28:24;28.80;40.70
43991;DHT22;29654;50.784;20.604;2023-07-20T12:33:27;28.70;40.60
43991;DHT22;29654;50.784;20.604;2023-07-20T12:38:30;28.70;40.70
43991;DHT22;29654;50.784;20.604;2023-07-20T12:43:34;28.70;40.60
43991;DHT22;29654;50.784;20.604;2023-07-20T12:48:37;28.70;40.70
43991;DHT22;29654;50.784;20.604;2023-07-20T12:53:43;28.70;40.60
43991;DHT22;29654;50.784;20.604;2023-07-20T12:58:48;28.80;40.40
43991;DHT22;29654;50.784;20.604;2023-07-20T13:03:51;28.80;39.90
43991;DHT22;29654;50.784;20.604;2023-07-20T13:08:55;28.70;39.60
43991;DHT22;29654;50.784;20.604;2023-07-20T13:14:00;28.70;39.70
43991;DHT22;29654;50.784;20.604;2023-07-20T13:19:03;28.70;38.90
43991;DHT22;29654;50.784;20.604;2023-07-20T13:24:06;28.70;39.00
43991;DHT22;29654;50.784;20.604;2023-07-20T13:29:10;28.70;39.10
43991;DHT22;29654;50.784;20.604;2023-07-20T13:34:15;28.70;39.50
43991;DHT22;29654;50.784;20.604;2023-07-20T13:39:18;28.80;39.90
43991;DHT22;29654;50.784;20.604;2023-07-20T13:44:22;28.90;39.90
43991;DHT22;29654;50.784;20.604;2023-07-20T13:49:26;28.90;39.70
43991;DHT22;29654;50.784;20.604;2023-07-20T13:54:29;28.90;40.30
43991;DHT22;29654;50.784;20.604;2023-07-20T13:59:33;28.90;40.30
43991;DHT22;29654;50.784;20.604;2023-07-20T14:04:36;29.00;40.70
43991;DHT22;29654;50.784;20.604;2023-07-20T14:09:39;29.10;40.50
43991;DHT22;29654;50.784;20.604;2023-07-20T14:14:43;29.20;40.00
43991;DHT22;29654;50.784;20.604;2023-07-20T14:19:47;29.20;39.10
43991;DHT22;29654;50.784;20.604;2023-07-20T14:24:49;29.20;39.10
43991;DHT22;29654;50.784;20.604;2023-07-20T14:29:53;29.20;39.30
43991;DHT22;29654;50.784;20.604;2023-07-20T14:34:56;29.20;39.20
43991;DHT22;29654;50.784;20.604;2023-07-20T14:39:59;29.00;39.00
43991;DHT22;29654;50.784;20.604;2023-07-20T14:45:05;28.80;39.40
43991;DHT22;29654;50.784;20.604;2023-07-20T14:50:09;28.50;39.50
43991;DHT22;29654;50.784;20.604;2023-07-20T14:55:12;28.30;38.90
43991;DHT22;29654;50.784;20.604;2023-07-20T15:00:17;28.10;38.30
43991;DHT22;29654;50.784;20.604;2023-07-20T15:05:21;27.90;38.70
43991;DHT22;29654;50.784;20.604;2023-07-20T15:10:25;27.80;38.80
43991;DHT22;29654;50.784;20.604;2023-07-20T15:15:29;27.60;38.90
43991;DHT22;29654;50.784;20.604;2023-07-20T15:20:31;27.60;39.20
43991;DHT22;29654;50.784;20.604;2023-07-20T15:25:34;27.50;41.20
43991;DHT22;29654;50.784;20.604;2023-07-20T15:30:38;27.40;42.20
43991;DHT22;29654;50.784;20.604;2023-07-20T15:35:40;27.20;42.50
43991;DHT22;29654;50.784;20.604;2023-07-20T15:40:43;27.00;42.20
43991;DHT22;29654;50.784;20.604;2023-07-20T15:45:48;26.90;42.00
43991;DHT22;29654;50.784;20.604;2023-07-20T15:50:51;26.80;42.00
43991;DHT22;29654;50.784;20.604;2023-07-20T15:55:54;26.70;41.60
43991;DHT22;29654;50.784;20.604;2023-07-20T16:00:58;26.70;41.90
43991;DHT22;29654;50.784;20.604;2023-07-20T16:06:02;26.60;41.50
43991;DHT22;29654;50.784;20.604;2023-07-20T16:11:06;26.60;42.40
43991;DHT22;29654;50.784;20.604;2023-07-20T16:16:11;26.50;42.30
43991;DHT22;29654;50.784;20.604;2023-07-20T16:21:13;26.40;41.80
43991;DHT22;29654;50.784;20.604;2023-07-20T16:26:16;26.40;41.60
43991;DHT22;29654;50.784;20.604;2023-07-20T16:31:20;26.40;41.50
43991;DHT22;29654;50.784;20.604;2023-07-20T16:36:23;26.50;41.50
43991;DHT22;29654;50.784;20.604;2023-07-20T16:41:25;26.60;41.50
43991;DHT22;29654;50.784;20.604;2023-07-20T16:46:29;26.60;40.60
43991;DHT22;29654;50.784;20.604;2023-07-20T16:51:33;26.60;40.50
43991;DHT22;29654;50.784;20.604;2023-07-20T16:56:35;26.50;40.60
43991;DHT22;29654;50.784;20.604;2023-07-20T17:01:39;26.50;40.60
43991;DHT22;29654;50.784;20.604;2023-07-20T17:06:42;26.50;40.60
43991;DHT22;29654;50.784;20.604;2023-07-20T17:11:47;26.60;40.60
43991;DHT22;29654;50.784;20.604;2023-07-20T17:16:51;26.60;40.60
43991;DHT22;29654;50.784;20.604;2023-07-20T17:21:54;26.70;40.60
43991;DHT22;29654;50.784;20.604;2023-07-20T17:26:56;26.70;40.40
43991;DHT22;29654;50.784;20.604;2023-07-20T17:32:00;26.70;40.40
43991;DHT22;29654;50.784;20.604;2023-07-20T17:37:04;26.80;40.50
43991;DHT22;29654;50.784;20.604;2023-07-20T17:42:07;26.80;40.30
43991;DHT22;29654;50.784;20.604;2023-07-20T17:47:11;26.90;40.30
43991;DHT22;29654;50.784;20.604;2023-07-20T17:52:14;26.90;40.30
43991;DHT22;29654;50.784;20.604;2023-07-20T17:57:17;26.90;40.40
43991;DHT22;29654;50.784;20.604;2023-07-20T18:02:21;26.90;40.10
43991;DHT22;29654;50.784;20.604;2023-07-20T18:07:26;26.90;40.20
43991;DHT22;29654;50.784;20.604;2023-07-20T18:12:29;26.80;40.10
43991;DHT22;29654;50.784;20.604;2023-07-20T18:17:34;26.70;40.40
43991;DHT22;29654;50.784;20.604;2023-07-20T18:22:38;26.70;40.90
43991;DHT22;29654;50.784;20.604;2023-07-20T18:27:41;26.50;40.80
43991;DHT22;29654;50.784;20.604;2023-07-20T18:32:45;26.40;40.90
43991;DHT22;29654;50.784;20.604;2023-07-20T18:37:48;26.40;41.10
43991;DHT22;29654;50.784;20.604;2023-07-20T18:42:50;26.30;41.20
43991;DHT22;29654;50.784;20.604;2023-07-20T18:47:55;26.20;41.40
43991;DHT22;29654;50.784;20.604;2023-07-20T18:52:59;26.10;41.50
43991;DHT22;29654;50.784;20.604;2023-07-20T18:58:02;25.90;41.70
43991;DHT22;29654;50.784;20.604;2023-07-20T19:03:06;25.80;41.70
43991;DHT22;29654;50.784;20.604;2023-07-20T19:08:08;25.60;41.90
43991;DHT22;29654;50.784;20.604;2023-07-20T19:13:12;25.40;41.90
43991;DHT22;29654;50.784;20.604;2023-07-20T19:18:17;25.20;42.20
43991;DHT22;29654;50.784;20.604;2023-07-20T19:23:20;25.10;42.70
43991;DHT22;29654;50.784;20.604;2023-07-20T19:28:23;24.90;42.90
43991;DHT22;29654;50.784;20.604;2023-07-20T19:33:26;24.80;43.10
43991;DHT22;29654;50.784;20.604;2023-07-20T19:38:29;24.70;43.60
43991;DHT22;29654;50.784;20.604;2023-07-20T19:43:32;24.60;43.70
43991;DHT22;29654;50.784;20.604;2023-07-20T19:48:36;24.50;43.90
43991;DHT22;29654;50.784;20.604;2023-07-20T19:53:38;24.50;44.40
43991;DHT22;29654;50.784;20.604;2023-07-20T19:58:41;24.40;44.40
43991;DHT22;29654;50.784;20.604;2023-07-20T20:03:45;24.40;44.50
43991;DHT22;29654;50.784;20.604;2023-07-20T20:08:48;24.40;44.80
43991;DHT22;29654;50.784;20.604;2023-07-20T20:13:51;24.30;44.70
43991;DHT22;29654;50.784;20.604;2023-07-20T20:18:56;24.30;44.70
43991;DHT22;29654;50.784;20.604;2023-07-20T20:23:59;24.20;45.00
43991;DHT22;29654;50.784;20.604;2023-07-20T20:29:02;24.20;45.00
43991;DHT22;29654;50.784;20.604;2023-07-20T20:34:06;24.10;45.00
43991;DHT22;29654;50.784;20.604;2023-07-20T20:39:10;24.10;45.50
43991;DHT22;29654;50.784;20.604;2023-07-20T20:44:13;24.10;45.50
43991;DHT22;29654;50.784;20.604;2023-07-20T20:49:20;24.00;45.60
43991;DHT22;29654;50.784;20.604;2023-07-20T20:54:22;24.00;45.80
43991;DHT22;29654;50.784;20.604;2023-07-20T20:59:26;24.00;45.90
43991;DHT22;29654;50.784;20.604;2023-07-20T21:04:30;24.00;46.00
43991;DHT22;29654;50.784;20.604;2023-07-20T21:09:33;24.00;46.10
43991;DHT22;29654;50.784;20.604;2023-07-20T21:14:36;24.00;46.10
43991;DHT22;29654;50.784;20.604;2023-07-20T21:19:40;24.00;46.00
43991;DHT22;29654;50.784;20.604;2023-07-20T21:24:43;24.00;46.20
43991;DHT22;29654;50.784;20.604;2023-07-20T21:29:45;23.90;46.10
43991;DHT22;29654;50.784;20.604;2023-07-20T21:34:50;23.90;46.00
43991;DHT22;29654;50.784;20.604;2023-07-20T21:39:53;23.80;46.10
43991;DHT22;29654;50.784;20.604;2023-07-20T21:44:56;23.70;46.10
43991;DHT22;29654;50.784;20.604;2023-07-20T21:50:00;23.50;46.20
43991;DHT22;29654;50.784;20.604;2023-07-20T21:55:02;23.40;46.40
43991;DHT22;29654;50.784;20.604;2023-07-20T22:00:07;23.30;46.40
43991;DHT22;29654;50.784;20.604;2023-07-20T22:05:16;23.30;46.60
43991;DHT22;29654;50.784;20.604;2023-07-20T22:10:22;23.10;46.90
43991;DHT22;29654;50.784;20.604;2023-07-20T22:15:26;23.00;46.80
43991;DHT22;29654;50.784;20.604;2023-07-20T22:20:30;23.00;47.00
43991;DHT22;29654;50.784;20.604;2023-07-20T22:25:35;22.90;47.40
43991;DHT22;29654;50.784;20.604;2023-07-20T22:30:38;22.90;47.40
43991;DHT22;29654;50.784;20.604;2023-07-20T22:35:43;22.80;47.60
43991;DHT22;29654;50.784;20.604;2023-07-20T22:40:46;22.70;47.80
43991;DHT22;29654;50.784;20.604;2023-07-20T22:45:48;22.80;47.90
43991;DHT22;29654;50.784;20.604;2023-07-20T22:50:54;22.70;48.00
43991;DHT22;29654;50.784;20.604;2023-07-20T22:55:59;22.70;48.40
43991;DHT22;29654;50.784;20.604;2023-07-20T23:01:08;22.70;48.30
43991;DHT22;29654;50.784;20.604;2023-07-20T23:06:13;22.70;49.00
43991;DHT22;29654;50.784;20.604;2023-07-20T23:11:17;22.70;48.50
43991;DHT22;29654;50.784;20.604;2023-07-20T23:16:20;22.80;48.60
43991;DHT22;29654;50.784;20.604;2023-07-20T23:21:23;22.80;48.70
43991;DHT22;29654;50.784;20.604;2023-07-20T23:26:26;22.80;48.90
43991;DHT22;29654;50.784;20.604;2023-07-20T23:31:29;22.80;48.80
43991;DHT22;29654;50.784;20.604;2023-07-20T23:36:33;22.80;48.80
43991;DHT22;29654;50.784;20.604;2023-07-20T23:41:35;22.90;49.00
43991;DHT22;29654;50.784;20.604;2023-07-20T23:46:38;22.90;49.00
43991;DHT22;29654;50.784;20.604;2023-07-20T23:51:42;22.90;49.00
43991;DHT22;29654;50.784;20.604;2023-07-20T23:56:45;22.90;49.10
